Time;durP1;ratioP1;P1;durP2;ratioP2;P2;SDS_P1;SDS_P2;PMS_P1;PMS_P2;Temp;Humidity;BMP_temperature;BMP_pressure;BME280_temperature;BME280_humidity;BME280_pressure;Samples;Min_cycle;Max_cycle;Signal;HPM_P1;HPM_P2
2021/07/18 00:04:30;;;;;;;7.40;1.40;;;23.20;99.90;;;;;;20849691;23;20237;-68
2021/07/18 00:14:35;;;;;;;0.43;0.37;;;23.00;99.90;;;;;;20866582;28;20198;-68
2021/07/18 00:24:39;;;;;;;0.27;0.27;;;22.70;99.90;;;;;;20828558;28;20317;-69
2021/07/18 00:34:44;;;;;;;5.10;0.63;;;22.70;99.90;;;;;;20870320;28;20259;-69
2021/07/18 00:44:48;;;;;;;0.50;0.30;;;22.90;99.90;;;;;;20909615;28;20713;-69
2021/07/18 00:54:53;;;;;;;0.23;0.23;;;22.80;99.90;;;;;;20909969;28;20632;-69
2021/07/18 01:04:57;;;;;;;0.80;0.30;;;22.80;99.90;;;;;;20922233;22;20324;-68
2021/07/18 01:15:02;;;;;;;0.50;0.50;;;22.80;99.90;;;;;;20907780;28;20548;-68
2021/07/18 01:25:10;;;;;;;1.80;1.33;;;22.60;99.90;;;;;;20908214;28;20316;-68
2021/07/18 01:35:14;;;;;;;0.53;0.50;;;22.60;99.90;;;;;;20908119;28;20608;-68
2021/07/18 01:45:19;;;;;;;0.20;0.17;;;22.50;99.90;;;;;;20906181;28;20229;-68
2021/07/18 01:55:24;;;;;;;1.03;0.30;;;22.60;99.90;;;;;;20906297;28;20684;-68
2021/07/18 02:05:29;;;;;;;1.27;0.30;;;22.70;99.90;;;;;;20906451;28;20229;-67
2021/07/18 02:15:32;;;;;;;0.53;0.10;;;22.80;99.90;;;;;;20903717;28;20185;-67
2021/07/18 02:25:39;;;;;;;0.80;0.60;;;22.60;99.90;;;;;;20904387;28;20318;-67
2021/07/18 02:35:42;;;;;;;6.50;1.00;;;22.30;99.90;;;;;;20903143;28;20234;-67
2021/07/18 02:45:47;;;;;;;0.40;0.40;;;22.40;99.90;;;;;;20902213;28;20213;-67
2021/07/18 02:55:51;;;;;;;0.27;0.27;;;22.60;99.90;;;;;;20901679;28;20696;-67
2021/07/18 03:05:56;;;;;;;0.37;0.27;;;22.60;99.90;;;;;;20901415;28;20316;-68
2021/07/18 03:15:59;;;;;;;3.03;0.53;;;22.70;99.90;;;;;;20900467;28;20189;-67
2021/07/18 03:26:05;;;;;;;0.47;0.40;;;22.60;99.90;;;;;;20900406;28;20565;-67
2021/07/18 03:36:08;;;;;;;0.20;0.20;;;22.60;99.90;;;;;;20900156;28;20288;-68
2021/07/18 03:46:13;;;;;;;0.30;0.20;;;22.50;99.90;;;;;;20899850;28;20221;-69
2021/07/18 03:56:20;;;;;;;2.60;0.93;;;22.50;99.90;;;;;;20899523;28;20220;-68
2021/07/18 04:06:26;;;;;;;0.30;0.10;;;22.30;99.90;;;;;;20899382;28;20233;-69
2021/07/18 04:16:29;;;;;;;1.10;0.57;;;22.10;99.90;;;;;;20898157;28;20677;-68
2021/07/18 04:26:34;;;;;;;6.13;0.50;;;22.30;99.90;;;;;;20902893;28;20217;-68
2021/07/18 04:36:38;;;;;;;0.20;0.10;;;22.30;99.90;;;;;;20911932;28;20217;-67
2021/07/18 04:46:43;;;;;;;0.20;0.10;;;22.40;99.90;;;;;;20910453;28;20222;-68
2021/07/18 04:56:47;;;;;;;0.20;0.20;;;22.50;99.90;;;;;;20911895;28;20204;-68
2021/07/18 05:06:52;;;;;;;0.80;0.30;;;22.50;99.90;;;;;;20908258;28;20757;-67
2021/07/18 05:16:55;;;;;;;0.57;0.57;;;22.70;99.90;;;;;;20909311;28;20219;-68
2021/07/18 05:27:00;;;;;;;0.20;0.10;;;22.70;99.90;;;;;;20907830;28;20228;-68
2021/07/18 05:37:04;;;;;;;0.20;0.10;;;22.90;99.90;;;;;;20907353;28;20201;-68
2021/07/18 05:47:10;;;;;;;1.23;0.50;;;23.00;99.90;;;;;;20906631;28;20720;-68
2021/07/18 05:57:14;;;;;;;0.20;0.10;;;23.10;99.90;;;;;;20905279;28;20193;-68
2021/07/18 06:07:19;;;;;;;0.50;0.50;;;23.50;99.90;;;;;;20904446;28;20280;-68
2021/07/18 06:17:22;;;;;;;1.65;0.65;;;23.80;99.90;;;;;;20902857;28;20251;-68
2021/07/18 06:27:27;;;;;;;0.98;0.75;;;24.10;99.90;;;;;;20902641;28;20224;-68
2021/07/18 06:37:31;;;;;;;1.25;0.95;;;24.40;99.90;;;;;;20899748;28;20303;-68
2021/07/18 06:47:36;;;;;;;2.00;1.70;;;24.70;99.90;;;;;;20898991;28;20235;-68
2021/07/18 06:57:40;;;;;;;1.50;1.15;;;24.70;99.90;;;;;;20899861;28;20205;-68
2021/07/18 07:07:47;;;;;;;2.10;1.75;;;25.00;99.90;;;;;;20899878;28;20253;-67
2021/07/18 07:17:50;;;;;;;1.70;1.58;;;25.00;99.90;;;;;;20899242;28;20220;-68
2021/07/18 07:27:56;;;;;;;3.85;1.77;;;25.00;99.90;;;;;;20889903;28;20773;-64
2021/07/18 07:37:59;;;;;;;0.43;0.43;;;25.10;99.90;;;;;;20854683;28;20543;-67
2021/07/18 07:48:05;;;;;;;0.63;0.57;;;25.20;99.90;;;;;;20869883;28;20717;-66
2021/07/18 07:58:09;;;;;;;1.42;1.25;;;25.30;99.90;;;;;;20870789;28;20189;-66
2021/07/18 08:08:18;;;;;;;1.05;0.70;;;25.20;99.90;;;;;;20869907;28;20261;-66
2021/07/18 08:18:41;;;;;;;0.73;0.73;;;25.30;99.90;;;;;;20867551;28;20233;-70
2021/07/18 08:28:46;;;;;;;1.23;0.52;;;25.50;99.90;;;;;;20866941;28;20682;-67
2021/07/18 08:38:50;;;;;;;1.60;0.60;;;25.60;99.90;;;;;;20867402;28;20204;-69
2021/07/18 08:48:55;;;;;;;0.57;0.57;;;25.40;99.90;;;;;;20865701;28;20877;-67
2021/07/18 08:58:58;;;;;;;0.45;0.32;;;25.50;99.90;;;;;;20865909;28;20190;-67
2021/07/18 09:09:07;;;;;;;1.17;0.60;;;25.90;99.90;;;;;;20845135;28;20327;-68
2021/07/18 09:19:22;;;;;;;0.75;0.75;;;25.90;99.90;;;;;;20837286;28;20224;-68
2021/07/18 09:29:27;;;;;;;2.80;1.05;;;26.70;99.90;;;;;;20823040;28;20277;-68
2021/07/18 09:39:31;;;;;;;0.55;0.55;;;26.60;99.90;;;;;;20902528;28;20193;-67
2021/07/18 09:49:40;;;;;;;0.95;0.82;;;26.30;99.90;;;;;;20874654;28;20261;-67
2021/07/18 09:59:50;;;;;;;1.95;1.65;;;26.30;99.90;;;;;;20836661;28;20252;-68
2021/07/18 10:09:56;;;;;;;1.08;0.77;;;26.50;99.90;;;;;;20820412;28;20339;-68
2021/07/18 10:20:00;;;;;;;1.15;0.63;;;26.40;99.90;;;;;;20818028;28;20689;-67
2021/07/18 10:30:06;;;;;;;0.57;0.57;;;26.50;99.90;;;;;;20818742;28;20280;-68
2021/07/18 10:40:15;;;;;;;0.73;0.60;;;27.00;99.90;;;;;;20874804;28;20710;-69
2021/07/18 10:50:20;;;;;;;1.92;0.75;;;27.30;99.90;;;;;;20834628;28;20202;-68
2021/07/18 11:00:26;;;;;;;1.10;0.77;;;27.60;99.90;;;;;;20815486;28;20228;-68
2021/07/18 11:10:47;;;;;;;1.02;0.65;;;28.00;99.90;;;;;;20819997;28;20185;-70
2021/07/18 11:21:00;;;;;;;0.80;0.80;;;28.60;99.90;;;;;;20855304;28;20221;-68
2021/07/18 11:31:47;;;;;;;1.85;1.27;;;29.30;99.90;;;;;;20895228;28;20201;-68
2021/07/18 11:41:52;;;;;;;1.23;1.08;;;29.50;99.90;;;;;;20875885;28;20264;-68
2021/07/18 11:51:56;;;;;;;0.88;0.80;;;30.70;99.90;;;;;;20911459;28;20193;-69
2021/07/18 12:02:01;;;;;;;0.20;0.00;;;31.00;99.90;;;;;;20911096;28;20757;-68
2021/07/18 12:12:09;;;;;;;0.22;0.08;;;31.30;99.90;;;;;;20910728;28;20216;-68
2021/07/18 12:22:15;;;;;;;2.08;1.50;;;31.60;99.90;;;;;;20910847;28;20395;-69
2021/07/18 12:32:21;;;;;;;1.27;1.13;;;31.60;99.90;;;;;;20911107;28;20190;-68
2021/07/18 12:42:28;;;;;;;0.75;0.75;;;31.80;99.90;;;;;;20910031;28;20221;-68
2021/07/18 12:52:33;;;;;;;2.35;1.45;;;32.00;99.90;;;;;;20909240;28;20591;-70
2021/07/18 13:02:37;;;;;;;1.48;1.35;;;32.10;99.90;;;;;;20884509;28;20781;-73
2021/07/18 13:12:44;;;;;;;1.20;1.10;;;32.70;99.90;;;;;;20851878;28;20194;-73
2021/07/18 13:22:47;;;;;;;1.42;0.90;;;32.90;99.90;;;;;;20907806;28;20225;-73
2021/07/18 13:32:54;;;;;;;3.55;2.28;;;33.70;99.90;;;;;;20906301;28;20204;-73
2021/07/18 13:43:12;;;;;;;1.10;1.00;;;33.70;99.90;;;;;;20905711;28;20308;-73
2021/07/18 13:53:17;;;;;;;4.38;1.67;;;33.90;99.90;;;;;;20866266;28;20693;-73
2021/07/18 14:03:21;;;;;;;1.60;1.10;;;34.20;99.90;;;;;;20902617;28;20239;-74
2021/07/18 14:13:26;;;;;;;2.25;1.48;;;34.40;99.90;;;;;;20916788;28;20221;-72
2021/07/18 14:23:30;;;;;;;1.52;1.00;;;34.60;99.90;;;;;;20895165;28;20597;-71
2021/07/18 14:33:35;;;;;;;1.58;1.23;;;35.50;99.90;;;;;;20898727;28;20190;-73
2021/07/18 14:43:38;;;;;;;0.90;0.90;;;35.90;99.90;;;;;;20898145;28;20639;-73
2021/07/18 14:53:43;;;;;;;0.60;0.60;;;35.70;99.90;;;;;;20894423;28;20272;-73
2021/07/18 15:03:47;;;;;;;1.15;0.88;;;35.60;99.90;;;;;;20871759;28;20336;-72
2021/07/18 15:13:52;;;;;;;2.17;1.40;;;35.70;99.90;;;;;;20875806;28;20296;-73
2021/07/18 15:23:57;;;;;;;1.50;1.02;;;34.60;99.90;;;;;;20893661;28;20240;-73
2021/07/18 15:34:02;;;;;;;2.05;0.73;;;34.50;99.90;;;;;;20883332;28;20635;-75
2021/07/18 15:44:08;;;;;;;2.58;1.23;;;34.90;99.90;;;;;;20823831;28;20226;-75
2021/07/18 15:54:13;;;;;;;1.30;1.20;;;34.60;99.90;;;;;;20976022;28;20197;-72
2021/07/18 16:04:16;;;;;;;2.15;1.38;;;35.10;99.90;;;;;;20918298;28;20243;-73
2021/07/18 16:14:21;;;;;;;1.33;1.00;;;34.70;99.90;;;;;;20872717;28;20620;-72
2021/07/18 16:24:25;;;;;;;3.90;1.13;;;34.50;99.90;;;;;;20905093;28;20316;-73
2021/07/18 16:34:30;;;;;;;1.70;1.35;;;33.60;99.90;;;;;;20906616;28;20190;-71
2021/07/18 16:44:33;;;;;;;1.20;0.90;;;32.20;99.90;;;;;;20906875;28;20299;-71
2021/07/18 16:54:39;;;;;;;9.32;1.40;;;32.60;99.90;;;;;;20902910;28;20200;-70
2021/07/18 17:04:43;;;;;;;2.38;1.42;;;32.60;99.90;;;;;;20905216;28;20335;-73
2021/07/18 17:14:49;;;;;;;7.65;1.10;;;33.40;99.90;;;;;;20885181;28;20550;-74
2021/07/18 17:24:52;;;;;;;7.78;1.42;;;33.30;99.90;;;;;;20902517;28;20304;-72
2021/07/18 17:34:58;;;;;;;1.77;1.20;;;33.10;99.90;;;;;;20901027;28;20236;-72
2021/07/18 17:45:02;;;;;;;1.40;0.85;;;32.70;99.90;;;;;;20890459;28;21042;-72
2021/07/18 17:55:09;;;;;;;4.82;1.08;;;32.30;99.90;;;;;;20864337;28;20259;-71
2021/07/18 18:05:14;;;;;;;1.65;1.13;;;32.20;99.90;;;;;;20899768;28;20276;-72
2021/07/18 18:15:19;;;;;;;1.42;0.73;;;31.50;99.90;;;;;;20897201;28;20215;-72
2021/07/18 18:25:23;;;;;;;0.85;0.82;;;31.20;99.90;;;;;;20897375;28;20263;-74
2021/07/18 18:35:28;;;;;;;1.65;1.55;;;30.70;99.90;;;;;;20897196;28;20200;-71
2021/07/18 18:45:31;;;;;;;2.25;1.35;;;30.00;99.90;;;;;;20896621;28;20221;-73
2021/07/18 18:55:36;;;;;;;0.88;0.70;;;29.30;99.90;;;;;;20893671;28;20284;-72
2021/07/18 19:05:40;;;;;;;0.82;0.82;;;27.70;99.90;;;;;;20891860;28;20233;-73
2021/07/18 19:15:46;;;;;;;1.60;1.50;;;27.20;99.90;;;;;;20894104;28;20202;-73
2021/07/18 19:25:51;;;;;;;1.05;0.63;;;26.60;99.90;;;;;;20893068;28;20227;-72
2021/07/18 19:35:57;;;;;;;11.57;1.25;;;26.60;99.90;;;;;;20873732;28;20211;-72
2021/07/18 19:46:00;;;;;;;10.75;0.88;;;26.50;99.90;;;;;;20893052;28;20577;-72
2021/07/18 19:56:05;;;;;;;2.00;0.90;;;26.40;99.90;;;;;;20897959;28;20197;-72
2021/07/18 20:06:10;;;;;;;1.70;0.55;;;26.20;99.90;;;;;;20907913;28;20698;-72
2021/07/18 20:16:15;;;;;;;0.77;0.57;;;26.10;99.90;;;;;;20907868;28;20197;-73
2021/07/18 20:26:19;;;;;;;2.78;1.83;;;26.00;99.90;;;;;;20906151;28;20221;-72
2021/07/18 20:36:26;;;;;;;9.00;1.92;;;25.80;99.90;;;;;;20904322;28;20256;-72
2021/07/18 20:46:29;;;;;;;2.70;0.93;;;25.90;99.90;;;;;;20905512;28;20574;-73
2021/07/18 20:56:35;;;;;;;1.25;0.90;;;26.00;99.90;;;;;;20905216;28;20194;-74
2021/07/18 21:06:38;;;;;;;1.77;1.52;;;25.30;99.90;;;;;;20903728;28;20240;-72
2021/07/18 21:16:43;;;;;;;1.35;1.02;;;25.30;99.90;;;;;;20904097;28;20202;-75
2021/07/18 21:26:47;;;;;;;7.38;1.45;;;25.20;99.90;;;;;;20902646;28;20316;-74
2021/07/18 21:36:52;;;;;;;0.63;0.63;;;25.20;99.90;;;;;;20903175;28;20202;-73
2021/07/18 21:46:55;;;;;;;3.72;1.30;;;24.80;99.90;;;;;;20906133;28;20321;-76
2021/07/18 21:57:00;;;;;;;1.65;0.95;;;24.80;99.90;;;;;;20903258;28;20225;-74
2021/07/18 22:07:05;;;;;;;1.52;0.68;;;25.10;99.90;;;;;;20903173;28;20733;-74
2021/07/18 22:17:11;;;;;;;1.20;0.70;;;25.20;99.90;;;;;;20903634;28;20193;-74
2021/07/18 22:27:16;;;;;;;2.05;0.77;;;25.20;99.90;;;;;;20904013;28;20226;-73
2021/07/18 22:37:21;;;;;;;2.97;1.05;;;25.20;99.90;;;;;;20900707;28;20221;-74
2021/07/18 22:47:24;;;;;;;1.35;0.65;;;25.20;99.90;;;;;;20901017;28;20245;-75
2021/07/18 22:57:29;;;;;;;0.70;0.70;;;25.10;99.90;;;;;;20899270;28;20197;-73
2021/07/18 23:07:33;;;;;;;1.23;1.13;;;24.80;99.90;;;;;;20900651;28;20237;-74
2021/07/18 23:17:38;;;;;;;0.77;0.65;;;24.80;99.90;;;;;;20897597;28;20697;-73
2021/07/18 23:27:43;;;;;;;0.40;0.40;;;24.60;99.90;;;;;;20899681;28;20257;-75
2021/07/18 23:37:48;;;;;;;0.95;0.68;;;24.70;99.90;;;;;;20931934;28;20189;-75
2021/07/18 23:47:52;;;;;;;1.17;1.02;;;24.80;99.90;;;;;;20898357;28;20271;-75
2021/07/18 23:57:57;;;;;;;1.00;0.73;;;24.90;99.90;;;;;;20897459;28;20655;-74
